createdAt,value
2018-07-28T00:00:07.836Z,0
2018-07-28T00:01:17.902Z,0
2018-07-28T00:02:27.736Z,0
2018-07-28T00:03:37.817Z,0
2018-07-28T00:04:47.640Z,0
2018-07-28T00:05:57.195Z,0
2018-07-28T00:07:07.276Z,0
2018-07-28T00:08:17.355Z,0
2018-07-28T00:09:27.416Z,0
2018-07-28T00:10:37.473Z,0
2018-07-28T00:11:47.596Z,0
2018-07-28T00:12:57.685Z,0
2018-07-28T00:14:07.757Z,0
2018-07-28T00:15:17.846Z,0
2018-07-28T00:16:27.658Z,0
2018-07-28T00:17:37.730Z,0
2018-07-28T00:18:47.887Z,0
2018-07-28T00:19:57.955Z,0
2018-07-28T00:21:08.032Z,0
2018-07-28T00:22:18.122Z,0
2018-07-28T00:23:27.993Z,0
2018-07-28T00:24:38.080Z,0
2018-07-28T00:25:48.155Z,0
2018-07-28T00:26:58.229Z,0
2018-07-28T00:28:08.057Z,0
2018-07-28T00:29:17.867Z,0
2018-07-28T00:30:27.673Z,0
2018-07-28T00:31:37.748Z,0
2018-07-28T00:32:47.817Z,0
2018-07-28T00:33:57.929Z,0
2018-07-28T00:35:08.044Z,0
2018-07-28T00:36:18.132Z,0
2018-07-28T00:37:28.256Z,0
2018-07-28T00:38:38.063Z,0
2018-07-28T00:39:48.132Z,0
2018-07-28T00:40:57.675Z,0
2018-07-28T00:42:07.767Z,0
2018-07-28T00:43:17.852Z,0
2018-07-28T00:44:27.922Z,0
2018-07-28T00:45:37.996Z,0
2018-07-28T00:46:48.068Z,0
2018-07-28T00:47:58.141Z,0
2018-07-28T00:49:08.249Z,0
2018-07-28T00:50:18.372Z,0
2018-07-28T00:51:28.457Z,0
2018-07-28T00:52:38.532Z,0
2018-07-28T00:53:48.604Z,0
2018-07-28T00:54:58.470Z,0
2018-07-28T00:56:08.549Z,0
2018-07-28T00:57:18.370Z,0
2018-07-28T00:58:28.228Z,0
2018-07-28T00:59:38.300Z,0
2018-07-28T01:00:48.390Z,0
2018-07-28T01:01:58.466Z,0
2018-07-28T01:03:08.544Z,0
2018-07-28T01:04:18.611Z,0
2018-07-28T01:05:28.420Z,0
2018-07-28T01:06:38.505Z,0
2018-07-28T01:07:48.046Z,0
2018-07-28T01:08:58.097Z,0
2018-07-28T01:10:08.224Z,0
2018-07-28T01:11:18.289Z,0
2018-07-28T01:12:28.357Z,0
2018-07-28T01:13:38.170Z,0
2018-07-28T01:14:48.238Z,0
2018-07-28T01:15:58.320Z,0
2018-07-28T01:17:08.399Z,0
2018-07-28T01:18:18.200Z,0
2018-07-28T01:19:28.011Z,0
2018-07-28T01:20:38.093Z,0
2018-07-28T01:21:47.903Z,0
2018-07-28T01:22:57.468Z,0
2018-07-28T01:24:07.281Z,0
2018-07-28T01:25:17.420Z,0
2018-07-28T01:26:27.487Z,0
2018-07-28T01:27:37.358Z,0
2018-07-28T01:28:47.425Z,0
2018-07-28T01:29:57.230Z,0
2018-07-28T01:31:07.047Z,0
2018-07-28T01:32:16.854Z,0
2018-07-28T01:33:26.976Z,0
2018-07-28T01:34:37.041Z,0
2018-07-28T01:35:46.868Z,0
2018-07-28T01:36:56.940Z,0
2018-07-28T01:38:06.773Z,0
2018-07-28T01:39:16.588Z,0
2018-07-28T01:40:26.661Z,0
2018-07-28T01:41:36.480Z,0
2018-07-28T01:42:46.563Z,0
2018-07-28T01:43:56.643Z,0
2018-07-28T01:45:06.729Z,0
2018-07-28T01:46:16.527Z,0
2018-07-28T01:47:26.342Z,0
2018-07-28T01:48:36.409Z,0
2018-07-28T01:49:46.487Z,0
2018-07-28T01:50:56.574Z,0
2018-07-28T01:52:06.645Z,0
2018-07-28T01:53:16.718Z,0
2018-07-28T01:54:26.535Z,0
2018-07-28T01:55:36.604Z,0
2018-07-28T01:56:46.715Z,0
2018-07-28T01:57:56.814Z,0
2018-07-28T01:59:06.350Z,0
2018-07-28T02:00:16.164Z,0
2018-07-28T02:01:26.239Z,0
2018-07-28T02:02:36.320Z,0
2018-07-28T02:03:45.603Z,0
2018-07-28T02:04:55.412Z,0
2018-07-28T02:06:05.499Z,0
2018-07-28T02:07:15.578Z,0
2018-07-28T02:08:25.637Z,0
2018-07-28T02:09:35.451Z,0
2018-07-28T02:10:45.258Z,0
2018-07-28T02:11:55.316Z,0
2018-07-28T02:13:05.394Z,0
2018-07-28T02:14:15.460Z,0
2018-07-28T02:15:25.536Z,0
2018-07-28T02:16:35.342Z,0
2018-07-28T02:17:45.423Z,0
2018-07-28T02:18:55.243Z,0
2018-07-28T02:20:05.308Z,0
2018-07-28T02:21:14.849Z,0
2018-07-28T02:22:24.660Z,0
2018-07-28T02:23:34.746Z,0
2018-07-28T02:24:44.567Z,0
2018-07-28T02:25:54.375Z,0
2018-07-28T02:27:04.453Z,0
2018-07-28T02:28:14.518Z,0
2018-07-28T02:29:24.571Z,0
2018-07-28T02:30:34.653Z,0
2018-07-28T02:31:44.476Z,0
2018-07-28T02:32:54.558Z,0
2018-07-28T02:34:04.645Z,0
2018-07-28T02:35:14.738Z,0
2018-07-28T02:36:24.567Z,0
2018-07-28T02:37:34.399Z,0
2018-07-28T02:38:44.474Z,0
2018-07-28T02:39:54.548Z,0
2018-07-28T02:41:04.646Z,0
2018-07-28T02:42:14.480Z,0
2018-07-28T02:43:24.031Z,0
2018-07-28T02:44:34.094Z,0
2018-07-28T02:45:43.913Z,0
2018-07-28T02:46:54.031Z,0
2018-07-28T02:48:03.864Z,0
2018-07-28T02:49:13.729Z,0
2018-07-28T02:50:23.808Z,4
2018-07-28T02:51:33.615Z,4
2018-07-28T02:52:43.682Z,0
2018-07-28T02:53:53.784Z,4
2018-07-28T02:55:03.870Z,4
2018-07-28T02:56:13.948Z,4
2018-07-28T02:57:23.760Z,4
2018-07-28T02:58:33.839Z,4
2018-07-28T02:59:43.652Z,4
2018-07-28T03:00:53.737Z,4
2018-07-28T03:02:03.799Z,8
2018-07-28T03:35:10.913Z,268
2018-07-28T03:36:20.978Z,288
2018-07-28T03:37:31.057Z,312
2018-07-28T03:38:41.121Z,336
2018-07-28T03:39:51.185Z,360
2018-07-28T03:41:01.273Z,384
2018-07-28T03:42:11.353Z,408
2018-07-28T03:43:21.416Z,432
2018-07-28T03:44:31.487Z,468
2018-07-28T03:45:41.549Z,500
2018-07-28T03:46:51.670Z,540
2018-07-28T03:48:01.486Z,592
2018-07-28T03:49:11.595Z,636
2018-07-28T03:50:21.485Z,680
2018-07-28T03:51:31.568Z,724
2018-07-28T03:52:41.134Z,764
2018-07-28T03:53:50.928Z,808
2018-07-28T03:55:00.729Z,844
2018-07-28T03:56:10.807Z,880
2018-07-28T03:57:20.626Z,900
2018-07-28T03:58:30.439Z,908
2018-07-28T03:59:40.504Z,912
2018-07-28T04:00:50.590Z,928
2018-07-28T04:02:00.401Z,964
2018-07-28T04:03:10.503Z,1000
2018-07-28T04:04:20.847Z,1032
2018-07-28T04:05:30.923Z,1060
2018-07-28T04:06:40.987Z,1088
2018-07-28T04:07:51.055Z,1096
2018-07-28T04:09:01.125Z,1096
2018-07-28T04:10:11.200Z,1120
2018-07-28T04:11:21.273Z,1156
2018-07-28T04:12:31.091Z,1196
2018-07-28T04:13:40.898Z,1240
2018-07-28T04:14:50.709Z,1276
2018-07-28T04:16:00.512Z,1292
2018-07-28T04:17:10.588Z,1304
2018-07-28T04:18:20.131Z,1328
2018-07-28T04:19:29.959Z,1364
2018-07-28T04:20:40.052Z,1404
2018-07-28T04:21:50.127Z,1456
2018-07-28T04:23:00.218Z,1516
2018-07-28T04:24:10.039Z,1600
2018-07-28T04:25:20.172Z,1792
2018-07-28T04:26:30.255Z,3080
2018-07-28T04:27:40.322Z,3476
2018-07-28T04:28:50.408Z,3596
2018-07-28T04:30:00.475Z,3884
2018-07-28T04:31:10.570Z,3924
2018-07-28T04:32:20.653Z,3832
2018-07-28T04:33:30.749Z,4336
2018-07-28T04:34:40.560Z,4684
2018-07-28T04:35:50.629Z,5184
2018-07-28T04:37:00.497Z,4860
2018-07-28T04:38:10.650Z,5100
2018-07-28T04:39:20.779Z,6336
2018-07-28T04:40:30.911Z,6640
2018-07-28T04:41:41.001Z,7664
2018-07-28T04:42:51.091Z,7984
2018-07-28T04:44:01.311Z,7888
2018-07-28T04:45:11.562Z,7476
2018-07-28T04:46:21.661Z,6264
2018-07-28T04:47:31.740Z,3816
2018-07-28T04:48:41.817Z,3212
2018-07-28T04:49:51.893Z,3008
2018-07-28T04:51:01.715Z,3940
2018-07-28T04:52:11.786Z,4428
2018-07-28T04:53:21.873Z,3384
2018-07-28T04:54:31.800Z,3304
2018-07-28T04:55:41.887Z,4188
2018-07-28T04:56:51.963Z,4492
2018-07-28T04:58:02.063Z,4452
2018-07-28T04:59:11.867Z,3452
2018-07-28T05:00:22.053Z,2904
2018-07-28T05:01:31.849Z,2708
2018-07-28T05:02:41.927Z,2544
2018-07-28T05:03:52.011Z,2436
2018-07-28T05:05:02.115Z,2424
2018-07-28T05:06:13.238Z,2428
2018-07-28T05:07:23.843Z,2444
2018-07-28T05:08:33.928Z,2452
2018-07-28T05:09:44.004Z,2472
2018-07-28T05:10:54.087Z,2536
2018-07-28T05:12:04.013Z,2652
2018-07-28T05:13:13.622Z,2840
2018-07-28T05:14:23.675Z,2964
2018-07-28T05:15:33.749Z,3100
2018-07-28T05:16:43.815Z,3188
2018-07-28T05:17:53.899Z,3516
2018-07-28T05:19:03.704Z,3848
2018-07-28T05:20:13.514Z,3956
2018-07-28T05:21:23.594Z,3844
2018-07-28T05:22:33.423Z,4288
2018-07-28T05:23:43.371Z,4132
2018-07-28T05:24:53.597Z,4760
2018-07-28T05:26:03.428Z,3704
2018-07-28T05:27:13.245Z,3132
2018-07-28T05:28:23.056Z,2956
2018-07-28T05:29:33.277Z,2904
2018-07-28T05:30:43.419Z,2904
2018-07-28T05:31:53.242Z,3000
2018-07-28T05:33:03.318Z,3200
2018-07-28T05:34:13.399Z,3412
2018-07-28T05:35:23.470Z,3692
2018-07-28T05:36:33.029Z,3824
2018-07-28T05:37:43.104Z,3544
2018-07-28T05:38:52.959Z,3416
2018-07-28T05:40:03.134Z,3584
2018-07-28T05:41:13.221Z,4528
2018-07-28T05:42:23.312Z,5096
2018-07-28T05:43:33.156Z,6128
2018-07-28T05:44:43.256Z,6748
2018-07-28T05:45:53.093Z,5036
2018-07-28T05:47:02.919Z,4876
2018-07-28T05:48:13.010Z,7200
2018-07-28T05:49:23.084Z,5808
2018-07-28T05:50:33.187Z,4552
2018-07-28T05:51:43.275Z,4092
2018-07-28T05:52:53.356Z,3684
2018-07-28T05:54:03.178Z,3620
2018-07-28T05:55:13.250Z,3640
2018-07-28T05:56:23.325Z,3708
2018-07-28T05:57:33.387Z,4188
2018-07-28T05:58:43.466Z,4224
2018-07-28T05:59:53.554Z,4128
2018-07-28T06:01:03.634Z,4180
2018-07-28T06:02:14.098Z,5540
2018-07-28T06:03:24.329Z,5544
2018-07-28T06:04:34.422Z,5332
2018-07-28T06:05:44.502Z,6304
2018-07-28T06:06:54.583Z,6724
2018-07-28T06:08:04.660Z,6088
2018-07-28T06:09:14.774Z,5952
2018-07-28T06:10:24.913Z,6080
2018-07-28T06:11:34.997Z,7124
2018-07-28T06:12:45.126Z,6728
2018-07-28T06:13:55.189Z,5792
2018-07-28T06:15:05.288Z,5048
2018-07-28T06:16:15.117Z,4724
2018-07-28T06:17:25.183Z,4720
2018-07-28T06:18:35.264Z,4828
2018-07-28T06:19:45.077Z,4956
2018-07-28T06:20:55.175Z,4864
2018-07-28T06:22:05.263Z,4820
2018-07-28T06:23:15.457Z,5364
2018-07-28T06:24:25.555Z,6068
2018-07-28T06:25:35.375Z,6292
2018-07-28T06:26:45.453Z,6200
2018-07-28T06:27:55.629Z,6036
2018-07-28T06:29:05.713Z,5568
2018-07-28T06:30:15.541Z,5404
2018-07-28T06:31:25.669Z,5696
2018-07-28T06:32:35.801Z,5888
2018-07-28T06:33:45.871Z,5952
2018-07-28T06:34:55.694Z,6048
2018-07-28T06:36:05.781Z,6008
2018-07-28T06:37:15.889Z,5820
2018-07-28T06:38:25.970Z,5524
2018-07-28T06:39:35.998Z,5176
2018-07-28T06:40:45.562Z,5068
2018-07-28T06:41:55.638Z,4872
2018-07-28T06:43:05.751Z,4644
2018-07-28T06:44:15.855Z,5148
2018-07-28T06:45:25.404Z,5868
2018-07-28T06:46:35.216Z,6284
2018-07-28T06:47:45.294Z,6408
2018-07-28T06:48:55.397Z,6484
2018-07-28T06:50:05.489Z,6432
2018-07-28T06:51:15.627Z,6168
2018-07-28T06:52:25.715Z,5124
2018-07-28T06:53:35.809Z,5468
2018-07-28T06:54:45.693Z,5728
2018-07-28T06:55:55.501Z,5884
2018-07-28T06:57:05.585Z,5916
2018-07-28T06:58:15.670Z,5876
2018-07-28T06:59:25.760Z,5812
2018-07-28T07:00:35.327Z,5744
2018-07-28T07:01:45.394Z,5664
2018-07-28T07:02:55.474Z,5476
2018-07-28T07:04:05.023Z,5140
2018-07-28T07:05:15.102Z,4936
2018-07-28T07:06:25.179Z,4832
2018-07-28T07:07:35.007Z,4732
2018-07-28T07:08:45.102Z,4744
2018-07-28T07:09:55.173Z,4764
2018-07-28T07:11:05.259Z,4760
2018-07-28T07:12:15.099Z,4740
2018-07-28T07:13:25.187Z,4736
2018-07-28T07:14:35.043Z,4736
2018-07-28T07:15:45.134Z,4728
2018-07-28T07:16:55.215Z,4720
2018-07-28T07:18:05.297Z,4712
2018-07-28T07:19:15.381Z,4708
2018-07-28T07:20:25.472Z,4692
2018-07-28T07:21:35.559Z,4672
2018-07-28T07:22:45.660Z,4648
2018-07-28T07:23:55.732Z,4648
2018-07-28T07:25:05.567Z,4624
2018-07-28T07:26:15.404Z,4604
2018-07-28T07:27:25.476Z,4588
2018-07-28T07:28:35.555Z,4600
2018-07-28T07:29:45.669Z,4604
2018-07-28T07:30:55.769Z,4604
2018-07-28T07:32:05.844Z,4600
2018-07-28T07:33:15.910Z,4596
2018-07-28T07:34:25.730Z,4588
2018-07-28T07:35:35.824Z,4580
2018-07-28T07:36:45.914Z,4568
2018-07-28T07:37:55.721Z,4568
2018-07-28T07:39:05.868Z,4560
2018-07-28T07:40:15.682Z,4560
2018-07-28T07:41:25.764Z,4556
2018-07-28T07:42:35.830Z,4564
2018-07-28T07:43:45.967Z,4576
2018-07-28T07:44:56.118Z,4584
2018-07-28T07:46:05.946Z,4588
2018-07-28T07:47:16.485Z,4596
2018-07-28T07:48:26.768Z,4604
2018-07-28T07:49:36.575Z,4612
2018-07-28T07:50:46.377Z,4616
2018-07-28T07:51:56.487Z,4612
2018-07-28T07:53:06.594Z,4608
2018-07-28T07:54:16.658Z,4612
2018-07-28T07:55:26.763Z,4616
2018-07-28T07:56:36.599Z,4620
2018-07-28T07:57:46.677Z,4628
2018-07-28T07:58:56.763Z,4632
2018-07-28T08:00:06.856Z,4640
2018-07-28T08:01:16.983Z,4632
2018-07-28T08:02:27.108Z,4644
2018-07-28T08:03:36.997Z,4632
2018-07-28T08:04:46.929Z,4624
2018-07-28T08:05:57.156Z,4624
2018-07-28T08:07:07.300Z,4636
2018-07-28T08:08:17.395Z,4640
2018-07-28T08:09:27.474Z,4644
2018-07-28T08:10:37.295Z,4640
2018-07-28T08:11:47.362Z,4652
2018-07-28T08:12:57.250Z,4656
2018-07-28T08:14:07.090Z,4672
2018-07-28T08:15:17.205Z,4684
2018-07-28T08:16:27.014Z,4680
2018-07-28T08:17:36.845Z,4688
2018-07-28T08:18:46.935Z,4692
2018-07-28T08:19:56.755Z,4692
2018-07-28T08:21:07.179Z,4716
2018-07-28T08:22:17.318Z,4708
2018-07-28T08:23:27.396Z,4708
2018-07-28T08:24:37.503Z,4712
2018-07-28T08:25:47.592Z,4732
2018-07-28T08:26:57.625Z,4736
2018-07-28T08:28:07.949Z,4732
2018-07-28T08:29:17.769Z,4760
2018-07-28T08:30:27.905Z,4760
2018-07-28T08:31:38.023Z,4764
2018-07-28T08:32:48.100Z,4764
2018-07-28T08:33:58.197Z,4768
2018-07-28T08:35:08.277Z,4768
2018-07-28T08:36:18.359Z,4772
2018-07-28T08:37:28.434Z,4788
2018-07-28T08:38:38.544Z,4792
2018-07-28T08:39:48.643Z,4816
2018-07-28T08:40:58.576Z,4828
2018-07-28T08:42:08.736Z,4844
2018-07-28T08:43:18.835Z,4864
2018-07-28T08:44:28.922Z,4876
2018-07-28T08:45:38.997Z,4876
2018-07-28T08:46:48.565Z,4880
2018-07-28T08:47:58.667Z,4872
2018-07-28T08:49:09.514Z,4864
2018-07-28T08:50:19.836Z,4856
2018-07-28T08:51:29.921Z,4852
2018-07-28T08:52:39.739Z,4848
2018-07-28T08:53:49.839Z,4856
2018-07-28T08:54:59.919Z,4868
2018-07-28T08:56:10.004Z,4876
2018-07-28T08:57:20.097Z,4892
2018-07-28T08:58:30.188Z,4904
2018-07-28T08:59:39.792Z,4912
2018-07-28T09:00:49.928Z,4912
2018-07-28T09:02:00.004Z,4916
2018-07-28T09:03:10.088Z,4928
2018-07-28T09:04:20.187Z,4928
2018-07-28T09:05:30.265Z,4936
2018-07-28T09:06:40.091Z,4948
2018-07-28T09:07:50.189Z,4968
2018-07-28T09:09:00.297Z,4988
2018-07-28T09:10:10.393Z,5012
2018-07-28T09:11:20.481Z,5004
2018-07-28T09:12:30.909Z,5000
2018-07-28T09:13:41.165Z,4988
2018-07-28T09:14:50.988Z,5016
2018-07-28T09:16:01.085Z,5024
2018-07-28T09:17:11.169Z,4996
2018-07-28T09:18:21.259Z,5020
2018-07-28T09:19:31.071Z,5036
2018-07-28T09:20:41.153Z,5052
2018-07-28T09:21:51.276Z,5072
2018-07-28T09:23:01.109Z,5064
2018-07-28T09:24:11.271Z,5080
2018-07-28T09:25:21.409Z,5080
2018-07-28T09:26:31.524Z,5092
2018-07-28T09:27:41.605Z,5124
2018-07-28T09:28:51.453Z,5140
2018-07-28T09:30:01.569Z,5148
2018-07-28T09:31:11.701Z,5156
2018-07-28T09:32:21.791Z,5168
2018-07-28T09:33:31.625Z,5180
2018-07-28T09:34:41.448Z,5168
2018-07-28T09:35:51.600Z,5172
2018-07-28T09:37:01.989Z,5172
2018-07-28T09:38:12.275Z,5200
2018-07-28T09:39:22.359Z,5172
2018-07-28T09:40:32.450Z,5140
2018-07-28T09:41:42.551Z,5136
2018-07-28T09:42:52.368Z,5172
2018-07-28T09:44:01.950Z,5196
2018-07-28T09:45:11.918Z,5180
2018-07-28T09:46:22.248Z,5132
2018-07-28T09:47:34.591Z,5100
2018-07-28T09:48:45.715Z,5156
2018-07-28T09:49:55.795Z,5168
2018-07-28T09:51:06.185Z,5168
2018-07-28T09:52:16.346Z,5216
2018-07-28T09:53:26.487Z,5280
2018-07-28T09:54:36.579Z,5276
2018-07-28T09:55:46.715Z,5260
2018-07-28T09:56:56.852Z,5276
2018-07-28T09:58:06.969Z,5240
2018-07-28T09:59:18.221Z,5248
2018-07-28T10:00:28.577Z,5112
2018-07-28T10:01:39.287Z,3960
2018-07-28T10:02:50.221Z,5308
2018-07-28T10:04:00.943Z,5368
2018-07-28T10:05:11.368Z,5420
2018-07-28T10:06:21.463Z,5392
2018-07-28T10:07:31.558Z,5408
2018-07-28T10:08:41.703Z,5360
2018-07-28T10:09:51.826Z,3108
2018-07-28T10:11:01.664Z,4984
2018-07-28T10:12:11.784Z,5348
2018-07-28T10:13:21.882Z,5452
2018-07-28T10:14:31.727Z,5484
2018-07-28T10:15:41.824Z,5468
2018-07-28T10:16:51.977Z,2924
2018-07-28T10:18:01.796Z,4128
2018-07-28T10:19:11.907Z,4828
2018-07-28T10:20:21.751Z,3368
2018-07-28T10:21:31.849Z,3300
2018-07-28T10:22:42.050Z,3672
2018-07-28T10:23:52.196Z,5380
2018-07-28T10:25:02.036Z,5480
2018-07-28T10:26:12.113Z,3168
2018-07-28T10:27:22.199Z,5504
2018-07-28T10:28:32.338Z,5544
2018-07-28T10:29:42.198Z,5732
2018-07-28T10:30:52.284Z,5348
2018-07-28T10:32:02.155Z,5616
2018-07-28T10:33:12.278Z,5680
2018-07-28T10:34:22.426Z,5724
2018-07-28T10:35:32.539Z,5340
2018-07-28T10:36:42.801Z,5652
2018-07-28T10:37:53.234Z,5800
2018-07-28T10:39:03.337Z,5840
2018-07-28T10:40:13.501Z,4924
2018-07-28T10:41:23.848Z,5756
2018-07-28T10:42:33.956Z,5724
2018-07-28T10:43:44.041Z,5748
2018-07-28T10:44:54.122Z,5908
2018-07-28T10:46:03.964Z,5884
2018-07-28T10:47:14.028Z,3576
2018-07-28T10:48:24.121Z,5036
2018-07-28T10:49:34.213Z,3796
2018-07-28T10:50:44.039Z,6084
2018-07-28T10:51:54.368Z,6208
2018-07-28T10:53:04.667Z,6240
2018-07-28T10:54:14.779Z,6312
2018-07-28T10:55:24.681Z,6256
2018-07-28T10:56:34.785Z,6204
2018-07-28T10:57:44.918Z,6256
2018-07-28T10:58:55.009Z,6192
2018-07-28T11:00:05.097Z,6148
2018-07-28T11:01:15.295Z,6072
2018-07-28T11:02:25.380Z,6128
2018-07-28T11:03:35.222Z,6232
2018-07-28T11:04:45.341Z,6352
2018-07-28T11:05:55.163Z,6436
2018-07-28T11:07:05.279Z,6504
2018-07-28T11:08:15.100Z,6564
2018-07-28T11:09:24.991Z,6608
2018-07-28T11:10:34.812Z,6580
2018-07-28T11:11:44.930Z,6548
2018-07-28T11:12:55.016Z,6476
2018-07-28T11:14:04.849Z,6280
2018-07-28T11:15:14.678Z,6148
2018-07-28T11:16:24.784Z,6348
2018-07-28T11:17:34.881Z,6240
2018-07-28T11:18:45.148Z,3628
2018-07-28T11:19:55.489Z,6168
2018-07-28T11:21:05.585Z,6256
2018-07-28T11:22:15.681Z,6276
2018-07-28T11:23:25.915Z,6272
2018-07-28T11:24:36.004Z,6260
2018-07-28T11:25:45.823Z,6288
2018-07-28T11:26:56.006Z,6312
2018-07-28T11:28:06.097Z,6344
2018-07-28T11:29:15.674Z,6408
2018-07-28T11:30:24.980Z,6468
2018-07-28T11:31:35.168Z,6480
2018-07-28T11:32:45.382Z,6504
2018-07-28T11:33:55.473Z,6536
2018-07-28T11:35:05.297Z,6476
2018-07-28T11:36:15.427Z,6528
2018-07-28T11:37:25.509Z,6584
2018-07-28T11:38:35.676Z,6564
2018-07-28T11:39:45.784Z,6544
2018-07-28T11:40:55.864Z,6624
2018-07-28T11:42:05.707Z,6656
2018-07-28T11:43:15.541Z,6564
2018-07-28T11:44:25.412Z,6544
2018-07-28T11:45:35.486Z,6488
2018-07-28T11:46:45.570Z,6444
2018-07-28T11:47:55.676Z,6440
2018-07-28T11:49:05.783Z,6416
2018-07-28T11:50:15.993Z,6428
2018-07-28T11:51:25.575Z,6504
2018-07-28T11:52:35.727Z,6568
2018-07-28T11:53:45.823Z,6568
2018-07-28T11:54:55.933Z,6528
2018-07-28T11:56:05.796Z,6568
2018-07-28T11:57:15.889Z,6516
2018-07-28T11:58:26.603Z,6440
2018-07-28T11:59:36.631Z,6400
2018-07-28T12:00:46.739Z,6300
2018-07-28T12:01:56.690Z,6316
2018-07-28T12:03:06.786Z,6412
2018-07-28T12:04:16.875Z,6532
2018-07-28T12:05:26.821Z,6660
2018-07-28T12:06:37.062Z,6724
2018-07-28T12:07:47.467Z,6676
2018-07-28T12:08:57.796Z,6612
2018-07-28T12:10:07.629Z,6608
2018-07-28T12:11:17.775Z,6508
2018-07-28T12:12:27.979Z,6500
2018-07-28T12:13:37.816Z,6332
2018-07-28T12:14:47.400Z,6436
2018-07-28T12:15:57.498Z,6448
2018-07-28T12:17:07.309Z,6460
2018-07-28T12:18:17.674Z,6516
2018-07-28T12:19:28.008Z,6448
2018-07-28T12:20:38.341Z,6420
2018-07-28T12:21:48.433Z,6420
2018-07-28T12:22:58.529Z,6488
2018-07-28T12:24:09.031Z,6548
2018-07-28T12:25:19.137Z,6552
2018-07-28T12:26:29.237Z,6528
2018-07-28T12:27:39.326Z,6620
2018-07-28T12:28:49.170Z,6636
2018-07-28T12:29:58.987Z,6668
2018-07-28T12:31:09.083Z,6588
2018-07-28T12:32:19.200Z,6564
2018-07-28T12:33:29.067Z,6348
2018-07-28T12:34:39.373Z,6484
2018-07-28T12:35:49.581Z,6620
2018-07-28T12:36:59.673Z,6876
2018-07-28T12:38:09.516Z,6996
2018-07-28T12:39:19.370Z,7020
2018-07-28T12:40:29.464Z,7032
2018-07-28T12:41:39.290Z,7068
2018-07-28T12:42:49.392Z,7016
2018-07-28T12:43:59.481Z,7128
2018-07-28T12:45:09.636Z,6732
2018-07-28T12:46:19.467Z,6916
2018-07-28T12:47:29.561Z,7272
2018-07-28T12:48:39.655Z,7396
2018-07-28T12:49:49.745Z,7312
2018-07-28T12:50:59.895Z,7232
2018-07-28T12:52:09.996Z,6980
2018-07-28T12:53:20.069Z,7040
2018-07-28T12:54:30.174Z,6768
2018-07-28T12:55:40.357Z,6956
2018-07-28T12:56:50.502Z,7036
2018-07-28T12:58:00.602Z,7156
2018-07-28T12:59:10.705Z,7256
2018-07-28T13:00:20.791Z,7264
2018-07-28T13:01:30.890Z,3828
2018-07-28T13:02:41.044Z,3792
2018-07-28T13:03:51.227Z,3820
2018-07-28T13:05:01.399Z,3680
2018-07-28T13:06:11.507Z,3656
2018-07-28T13:07:21.599Z,3700
2018-07-28T13:08:31.756Z,4260
2018-07-28T13:09:41.591Z,7292
2018-07-28T13:10:51.778Z,7288
2018-07-28T13:12:01.870Z,7476
2018-07-28T13:13:11.998Z,7536
2018-07-28T13:14:22.106Z,7672
2018-07-28T13:15:32.202Z,7620
2018-07-28T13:16:42.300Z,7512
2018-07-28T13:17:52.594Z,7396
2018-07-28T13:19:02.861Z,7468
2018-07-28T13:20:12.756Z,7556
2018-07-28T13:21:22.875Z,7704
2018-07-28T13:22:32.971Z,7704
2018-07-28T13:23:43.304Z,7600
2018-07-28T13:24:53.484Z,4548
2018-07-28T13:26:03.591Z,4452
2018-07-28T13:27:13.420Z,4280
2018-07-28T13:28:23.525Z,4264
2018-07-28T13:29:33.661Z,5572
2018-07-28T13:30:43.510Z,7332
2018-07-28T13:31:53.686Z,5144
2018-07-28T13:33:03.788Z,5280
2018-07-28T13:34:13.898Z,6552
2018-07-28T13:35:24.008Z,4536
2018-07-28T13:36:34.043Z,6552
2018-07-28T13:37:44.206Z,5972
2018-07-28T13:38:54.049Z,7404
2018-07-28T13:40:04.181Z,5160
2018-07-28T13:41:14.279Z,7368
2018-07-28T13:42:24.367Z,7444
2018-07-28T13:43:34.495Z,7368
2018-07-28T13:44:44.617Z,7248
2018-07-28T13:45:54.456Z,6996
2018-07-28T13:47:04.589Z,7000
2018-07-28T13:48:14.712Z,7040
2018-07-28T13:49:24.822Z,7108
2018-07-28T13:50:34.913Z,7152
2018-07-28T13:51:44.499Z,7048
2018-07-28T13:52:54.605Z,7312
2018-07-28T13:54:04.707Z,7116
2018-07-28T13:55:14.813Z,6996
2018-07-28T13:56:24.923Z,7020
2018-07-28T13:57:35.036Z,7136
2018-07-28T13:58:45.155Z,7248
2018-07-28T13:59:55.276Z,7312
2018-07-28T14:01:05.120Z,7448
2018-07-28T14:02:15.221Z,7328
2018-07-28T14:03:24.790Z,7288
2018-07-28T14:04:34.909Z,7368
2018-07-28T14:05:44.751Z,7508
2018-07-28T14:06:54.899Z,7680
2018-07-28T14:08:05.008Z,7800
2018-07-28T14:09:15.121Z,7864
2018-07-28T14:10:25.193Z,7964
2018-07-28T14:11:35.033Z,8036
2018-07-28T14:12:45.213Z,8184
2018-07-28T14:13:55.311Z,8264
2018-07-28T14:15:05.829Z,8236
2018-07-28T14:16:15.986Z,8172
2018-07-28T14:17:26.138Z,8132
2018-07-28T14:18:37.185Z,8196
2018-07-28T14:19:46.797Z,8256
2018-07-28T14:20:56.877Z,8268
2018-07-28T14:22:06.975Z,8172
2018-07-28T14:23:17.081Z,8008
2018-07-28T14:24:27.211Z,7996
2018-07-28T14:25:37.294Z,7916
2018-07-28T14:26:47.417Z,7796
2018-07-28T14:27:57.275Z,7736
2018-07-28T14:29:07.205Z,7728
2018-07-28T14:30:17.041Z,7864
2018-07-28T14:31:27.294Z,7744
2018-07-28T14:32:37.205Z,7652
2018-07-28T14:33:46.781Z,7472
2018-07-28T14:34:56.867Z,7296
2018-07-28T14:36:06.966Z,7032
2018-07-28T14:37:17.305Z,6812
2018-07-28T14:38:27.146Z,6740
2018-07-28T14:39:37.011Z,6708
2018-07-28T14:40:47.101Z,6620
2018-07-28T14:41:56.929Z,6532
2018-07-28T14:43:07.009Z,6460
2018-07-28T14:44:17.109Z,6388
2018-07-28T14:45:26.958Z,6220
2018-07-28T14:46:37.057Z,6068
2018-07-28T14:47:46.879Z,5968
2018-07-28T14:48:56.694Z,5880
2018-07-28T14:50:06.783Z,5748
2018-07-28T14:51:16.868Z,5708
2018-07-28T14:52:26.700Z,5556
2018-07-28T14:53:36.791Z,5444
2018-07-28T14:54:46.609Z,5360
2018-07-28T14:55:56.698Z,5448
2018-07-28T14:57:06.780Z,5404
2018-07-28T14:58:16.670Z,5236
2018-07-28T14:59:26.510Z,5168
2018-07-28T15:00:36.366Z,5128
2018-07-28T15:01:46.210Z,5044
2018-07-28T15:02:56.351Z,4984
2018-07-28T15:04:06.189Z,5124
2018-07-28T15:05:16.291Z,5200
2018-07-28T15:06:26.417Z,5192
2018-07-28T15:07:36.668Z,5152
2018-07-28T15:08:46.778Z,5064
2018-07-28T15:09:56.923Z,5056
2018-07-28T15:11:07.006Z,4952
2018-07-28T15:12:17.112Z,4920
2018-07-28T15:13:26.974Z,4792
2018-07-28T15:14:37.085Z,4796
2018-07-28T15:15:47.171Z,4512
2018-07-28T15:16:57.265Z,4324
2018-07-28T15:18:07.373Z,4344
2018-07-28T15:19:17.451Z,4424
2018-07-28T15:20:27.277Z,4452
2018-07-28T15:21:37.699Z,4508
2018-07-28T15:22:47.995Z,4456
2018-07-28T15:23:58.094Z,4424
2018-07-28T15:25:08.191Z,4412
2018-07-28T15:26:18.282Z,4392
2018-07-28T15:27:28.155Z,4300
2018-07-28T15:28:38.351Z,4268
2018-07-28T15:29:48.294Z,4200
2018-07-28T15:30:58.402Z,4208
2018-07-28T15:32:08.508Z,4200
2018-07-28T15:33:18.667Z,4168
2018-07-28T15:34:28.765Z,4172
2018-07-28T15:35:38.860Z,4152
2018-07-28T15:36:49.029Z,4168
2018-07-28T15:37:58.614Z,4080
2018-07-28T15:39:08.498Z,4060
2018-07-28T15:40:18.342Z,4084
2018-07-28T15:41:28.447Z,4112
2018-07-28T15:42:38.534Z,4148
2018-07-28T15:43:48.120Z,4156
2018-07-28T15:44:58.215Z,4204
2018-07-28T15:46:08.315Z,4204
2018-07-28T15:47:18.407Z,4188
2018-07-28T15:48:28.507Z,4180
2018-07-28T15:49:38.852Z,4148
2018-07-28T15:50:49.028Z,4096
2018-07-28T15:51:59.126Z,4024
2018-07-28T15:53:08.954Z,3972
2018-07-28T15:54:19.043Z,3968
2018-07-28T15:55:29.128Z,3952
2018-07-28T15:56:39.064Z,3952
2018-07-28T15:57:48.620Z,3908
2018-07-28T15:58:58.730Z,3884
2018-07-28T16:00:08.842Z,3864
2018-07-28T16:01:18.664Z,3844
2018-07-28T16:02:28.852Z,3808
2018-07-28T16:03:38.950Z,3776
2018-07-28T16:04:49.091Z,3748
2018-07-28T16:05:59.352Z,3724
2018-07-28T16:07:09.686Z,3704
2018-07-28T16:08:19.534Z,3676
2018-07-28T16:09:29.625Z,3612
2018-07-28T16:10:39.712Z,3508
2018-07-28T16:11:49.840Z,3512
2018-07-28T16:13:00.008Z,3512
2018-07-28T16:14:10.123Z,3496
2018-07-28T16:15:20.212Z,3476
2018-07-28T16:16:29.778Z,3440
2018-07-28T16:17:39.859Z,3400
2018-07-28T16:18:49.941Z,3364
2018-07-28T16:20:00.127Z,3348
2018-07-28T16:21:10.357Z,3320
2018-07-28T16:22:20.188Z,3296